Miami Springs, Florida
Current Conditions -  °F | °C
As of 4:53 AM on Thursday 18 Dec 2014 (Local Time) from KMIA Reporting Station
Clear Clear  
Wind Chill: 61°   Ceiling: Unl
Heat Index: 61°   Visibility: 10mi
Dew Point: 54°   Wind: 0mph
Humidity: 78%   Direction: NA
Pressure: 30.12"   Gusts: NA
Location:  25.82°N, 80.28°W
Report Text: KMIA 180953Z 00000KT 10SM CLR 16/12 A3012 RMK AO2 SLP200 T01610122
Loading
Personal Weather Stations






























Interactive Weather Map New forecast layout! Learn more

10-Day Weather Forecast

Advertisements
Track Severe Weather on mobile